Time;durP1;ratioP1;P1;durP2;ratioP2;P2;SDS_P1;SDS_P2;PMS_P1;PMS_P2;Temp;Humidity;BMP_temperature;BMP_pressure;BME280_temperature;BME280_humidity;BME280_pressure;Samples;Min_cycle;Max_cycle;Signal;HPM_P1;HPM_P2
2023/02/22 00:02:47;;;;;;;14.02;8.90;;;4.50;99.90;;;;;;5051238;28;20783;-72
2023/02/22 00:05:32;;;;;;;11.80;9.52;;;4.50;99.90;;;;;;5046198;28;20196;-73
2023/02/22 00:08:21;;;;;;;9.82;8.23;;;4.60;99.90;;;;;;5045658;28;20903;-72
2023/02/22 00:11:08;;;;;;;11.53;8.43;;;4.60;99.90;;;;;;5046451;28;20233;-73
2023/02/22 00:13:55;;;;;;;14.02;8.52;;;4.60;99.90;;;;;;5036289;28;20814;-73
2023/02/22 00:16:41;;;;;;;10.70;8.70;;;4.60;99.90;;;;;;5043449;28;20259;-72
2023/02/22 00:19:29;;;;;;;11.52;8.88;;;4.50;99.90;;;;;;5043457;28;20293;-72
2023/02/22 00:22:17;;;;;;;21.85;8.65;;;4.50;99.90;;;;;;5041101;28;20209;-73
2023/02/22 00:25:04;;;;;;;9.82;7.70;;;4.30;99.90;;;;;;5044987;28;20225;-71
2023/02/22 00:27:51;;;;;;;11.55;8.02;;;4.20;99.90;;;;;;5041561;28;20217;-72
2023/02/22 00:30:37;;;;;;;11.90;8.80;;;4.10;99.90;;;;;;5048289;28;20225;-74
2023/02/22 00:33:23;;;;;;;15.00;9.20;;;4.20;99.90;;;;;;5041991;28;20447;-75
2023/02/22 00:36:10;;;;;;;13.20;8.57;;;4.20;99.90;;;;;;5049338;28;20213;-76
2023/02/22 00:38:56;;;;;;;11.60;8.50;;;4.20;99.90;;;;;;5046206;28;20224;-74
2023/02/22 00:41:44;;;;;;;12.90;8.98;;;4.20;99.90;;;;;;5041560;28;20193;-75
2023/02/22 00:44:29;;;;;;;12.05;9.07;;;4.30;99.90;;;;;;5039032;28;20237;-76
2023/02/22 00:47:18;;;;;;;14.10;9.20;;;4.30;99.90;;;;;;5049781;28;20742;-75
2023/02/22 00:50:05;;;;;;;12.37;7.93;;;4.30;99.90;;;;;;5075386;22;20303;-84
2023/02/22 00:52:51;;;;;;;10.63;7.68;;;4.20;99.90;;;;;;5045772;28;20455;-85
2023/02/22 00:55:38;;;;;;;15.55;8.52;;;4.30;99.90;;;;;;5026605;28;20206;-85
2023/02/22 00:58:25;;;;;;;14.98;8.50;;;4.30;99.90;;;;;;5029999;28;20390;-85
2023/02/22 01:01:11;;;;;;;11.35;8.27;;;4.20;99.90;;;;;;5026715;28;20242;-85
2023/02/22 01:03:57;;;;;;;14.00;8.82;;;4.10;99.90;;;;;;5030409;28;20708;-85
2023/02/22 01:06:43;;;;;;;12.48;7.60;;;3.90;99.90;;;;;;5031261;28;20635;-86
2023/02/22 01:09:29;;;;;;;10.90;7.70;;;3.90;99.90;;;;;;5021259;28;20672;-85
2023/02/22 01:12:15;;;;;;;15.75;6.85;;;3.90;99.90;;;;;;5025367;28;20299;-85
2023/02/22 01:15:03;;;;;;;8.95;7.53;;;4.00;99.90;;;;;;5028503;28;20229;-85
2023/02/22 01:17:50;;;;;;;15.02;8.60;;;4.00;99.90;;;;;;5021952;28;20220;-84
2023/02/22 01:20:36;;;;;;;11.00;8.18;;;4.00;99.90;;;;;;5023788;28;20209;-85
2023/02/22 01:23:21;;;;;;;9.10;7.18;;;4.10;99.90;;;;;;5023547;28;20241;-85
2023/02/22 01:26:07;;;;;;;8.60;7.18;;;4.10;99.90;;;;;;5026312;28;20205;-84
2023/02/22 01:28:53;;;;;;;11.02;7.43;;;4.10;99.90;;;;;;5021970;28;20303;-85
2023/02/22 01:31:41;;;;;;;12.40;8.68;;;4.10;99.90;;;;;;5032380;28;20229;-84
2023/02/22 01:34:29;;;;;;;11.35;7.43;;;4.00;99.90;;;;;;5033909;28;20264;-85
2023/02/22 01:37:14;;;;;;;16.92;8.30;;;3.80;99.90;;;;;;5033726;28;20252;-85
2023/02/22 01:40:00;;;;;;;11.95;8.18;;;3.80;99.90;;;;;;5035349;28;20209;-85
2023/02/22 01:42:47;;;;;;;18.65;7.50;;;3.80;99.90;;;;;;5031275;28;20569;-86
2023/02/22 01:45:54;;;;;;;10.73;8.40;;;3.90;99.90;;;;;;5036972;28;20248;-85
2023/02/22 01:48:45;;;;;;;11.45;7.97;;;3.90;99.90;;;;;;5036149;28;20193;-85
2023/02/22 01:51:36;;;;;;;14.48;7.60;;;3.90;99.90;;;;;;5041705;28;20237;-85
2023/02/22 01:54:25;;;;;;;10.82;6.97;;;4.00;99.90;;;;;;5036731;28;20292;-85
2023/02/22 01:57:17;;;;;;;10.60;7.47;;;4.00;99.90;;;;;;5031997;28;20202;-86
2023/02/22 02:00:10;;;;;;;9.30;6.85;;;4.00;99.90;;;;;;5033285;28;20693;-86
2023/02/22 02:03:02;;;;;;;11.45;7.22;;;3.80;99.90;;;;;;5028666;28;20203;-84
2023/02/22 02:05:51;;;;;;;17.13;7.68;;;3.70;99.90;;;;;;5037746;28;20206;-84
2023/02/22 02:08:48;;;;;;;10.70;7.30;;;3.50;99.90;;;;;;5035308;28;20516;-86
2023/02/22 02:11:34;;;;;;;15.50;8.25;;;3.60;99.90;;;;;;5027507;28;20245;-86
2023/02/22 02:14:20;;;;;;;13.52;7.75;;;3.50;99.90;;;;;;5028834;28;20237;-86
2023/02/22 02:17:08;;;;;;;10.93;7.82;;;3.60;99.90;;;;;;5030293;28;20253;-85
2023/02/22 02:20:06;;;;;;;10.13;8.23;;;3.70;99.90;;;;;;5036729;28;20209;-85
2023/02/22 02:22:59;;;;;;;12.40;8.43;;;3.80;99.90;;;;;;5027687;28;20210;-85
2023/02/22 02:26:20;;;;;;;11.38;8.05;;;3.90;99.90;;;;;;5032526;28;20299;-85
2023/02/22 02:29:55;;;;;;;14.82;9.07;;;4.00;99.90;;;;;;5033340;28;20222;-85
2023/02/22 02:32:56;;;;;;;19.25;8.75;;;4.00;99.90;;;;;;5021461;28;20226;-85
2023/02/22 02:35:51;;;;;;;10.82;7.32;;;3.80;99.90;;;;;;5027374;28;20220;-85
2023/02/22 02:38:50;;;;;;;8.45;6.78;;;3.60;99.90;;;;;;5022009;28;20678;-84
2023/02/22 02:41:39;;;;;;;10.00;7.57;;;3.60;99.90;;;;;;5026355;28;20198;-85
2023/02/22 02:44:31;;;;;;;9.23;6.90;;;3.60;99.90;;;;;;5031184;28;20305;-86
2023/02/22 02:47:22;;;;;;;9.50;7.30;;;3.70;99.90;;;;;;5022859;28;20202;-85
2023/02/22 02:50:15;;;;;;;8.98;6.88;;;3.60;99.90;;;;;;5031231;28;20229;-84
2023/02/22 02:53:04;;;;;;;9.73;8.00;;;3.60;99.90;;;;;;5035019;28;20225;-85
2023/02/22 02:55:50;;;;;;;9.00;7.00;;;3.70;99.90;;;;;;5031780;28;20205;-84
2023/02/22 02:58:47;;;;;;;11.77;6.63;;;3.70;99.90;;;;;;5033861;28;20720;-85
2023/02/22 03:01:47;;;;;;;10.52;7.10;;;3.80;99.90;;;;;;5033163;28;20206;-85
2023/02/22 03:04:53;;;;;;;9.43;6.80;;;3.80;99.90;;;;;;5025134;28;20714;-85
2023/02/22 03:07:59;;;;;;;8.27;6.50;;;3.90;99.90;;;;;;5027903;28;20209;-85
2023/02/22 03:10:52;;;;;;;9.75;6.72;;;3.90;99.90;;;;;;5024479;28;20481;-85
2023/02/22 03:13:45;;;;;;;8.45;6.70;;;3.70;99.90;;;;;;5030691;28;20321;-85
2023/02/22 03:16:37;;;;;;;10.10;7.45;;;3.70;99.90;;;;;;5024002;28;20596;-85
2023/02/22 03:19:31;;;;;;;10.30;7.20;;;3.70;99.90;;;;;;5025211;28;20203;-85
2023/02/22 03:22:25;;;;;;;15.63;7.32;;;3.70;99.90;;;;;;5028344;28;20305;-85
2023/02/22 03:25:17;;;;;;;9.65;6.30;;;3.70;99.90;;;;;;5027922;28;20233;-85
2023/02/22 03:28:10;;;;;;;8.10;7.05;;;3.60;99.90;;;;;;5025899;28;20519;-85
2023/02/22 03:31:00;;;;;;;7.45;6.63;;;3.50;99.90;;;;;;5026163;28;20202;-85
2023/02/22 03:33:52;;;;;;;11.98;7.05;;;3.40;99.90;;;;;;5025986;28;21391;-85
2023/02/22 03:36:44;;;;;;;10.85;7.30;;;3.30;99.90;;;;;;5027117;28;20206;-86
2023/02/22 03:39:32;;;;;;;6.63;5.80;;;3.40;99.90;;;;;;5023933;28;20330;-85
2023/02/22 03:42:23;;;;;;;10.45;7.25;;;3.50;99.90;;;;;;5033832;28;20682;-85
2023/02/22 03:45:14;;;;;;;7.95;6.53;;;3.50;99.90;;;;;;5029602;28;20222;-85
2023/02/22 03:48:05;;;;;;;16.02;7.43;;;3.50;99.90;;;;;;5029414;28;20720;-85
2023/02/22 03:50:51;;;;;;;11.02;7.90;;;3.40;99.90;;;;;;5024168;28;20213;-84
2023/02/22 03:53:37;;;;;;;7.50;5.68;;;3.30;99.90;;;;;;5027998;28;20722;-85
2023/02/22 03:56:25;;;;;;;11.63;7.10;;;3.30;99.90;;;;;;5026302;28;20213;-85
2023/02/22 03:59:13;;;;;;;10.95;6.60;;;3.20;99.90;;;;;;5033179;28;20726;-84
2023/02/22 04:01:59;;;;;;;9.30;6.72;;;3.30;99.90;;;;;;5016633;28;20202;-85
2023/02/22 04:04:45;;;;;;;10.05;7.70;;;3.20;99.90;;;;;;5025264;28;20229;-85
2023/02/22 04:07:30;;;;;;;12.32;7.95;;;3.20;99.90;;;;;;5026740;28;20225;-85
2023/02/22 04:10:17;;;;;;;9.73;8.20;;;3.20;99.90;;;;;;5025149;28;20225;-85
2023/02/22 04:13:02;;;;;;;8.70;6.47;;;3.30;99.90;;;;;;5034415;28;20229;-85
2023/02/22 04:15:49;;;;;;;6.60;5.70;;;3.40;99.90;;;;;;5038189;28;20259;-85
2023/02/22 04:18:35;;;;;;;9.63;6.72;;;3.40;99.90;;;;;;5051937;28;20209;-85
2023/02/22 04:21:21;;;;;;;10.02;6.97;;;3.50;99.90;;;;;;5035662;28;20206;-86
2023/02/22 04:24:07;;;;;;;9.07;6.63;;;3.40;99.90;;;;;;5038741;28;21927;-84
2023/02/22 04:26:54;;;;;;;9.65;6.20;;;3.40;99.90;;;;;;5039637;28;20209;-86
2023/02/22 04:29:39;;;;;;;10.38;5.88;;;3.50;99.90;;;;;;5031944;28;20270;-85
2023/02/22 04:32:26;;;;;;;11.00;7.07;;;3.50;99.90;;;;;;5038651;28;20277;-86
2023/02/22 04:35:12;;;;;;;9.65;6.25;;;3.50;99.90;;;;;;5033904;28;20218;-86
2023/02/22 04:37:58;;;;;;;6.65;5.82;;;3.40;99.90;;;;;;5034062;28;20209;-86
2023/02/22 04:40:43;;;;;;;9.40;6.40;;;3.40;99.90;;;;;;5030261;28;20206;-85
2023/02/22 04:43:29;;;;;;;9.57;5.93;;;3.40;99.90;;;;;;5035695;28;20225;-86
2023/02/22 04:46:15;;;;;;;6.55;5.43;;;3.50;99.90;;;;;;5028603;28;20200;-84
2023/02/22 04:49:02;;;;;;;9.55;6.28;;;3.50;99.90;;;;;;5026927;28;20214;-85
2023/02/22 04:51:48;;;;;;;9.93;5.47;;;3.50;99.90;;;;;;5029757;28;20202;-85
2023/02/22 04:54:34;;;;;;;16.55;7.00;;;3.60;99.90;;;;;;5030413;28;20229;-85
2023/02/22 04:57:19;;;;;;;6.90;5.95;;;3.60;99.90;;;;;;5031587;28;20202;-86
2023/02/22 05:00:09;;;;;;;7.97;5.90;;;3.60;99.90;;;;;;5027608;28;20720;-85
2023/02/22 05:02:54;;;;;;;7.93;5.13;;;3.60;99.90;;;;;;5031125;28;20214;-85
2023/02/22 05:05:42;;;;;;;8.30;6.35;;;3.50;99.90;;;;;;5026959;28;20717;-85
2023/02/22 05:08:28;;;;;;;9.73;8.18;;;3.30;99.90;;;;;;5031233;28;20566;-86
2023/02/22 05:11:14;;;;;;;9.90;6.72;;;3.30;99.90;;;;;;5032806;28;20203;-85
2023/02/22 05:13:59;;;;;;;8.90;6.70;;;3.30;99.90;;;;;;5027534;28;20319;-85
2023/02/22 05:16:45;;;;;;;8.93;5.70;;;3.20;99.90;;;;;;5035633;28;20205;-85
2023/02/22 05:19:31;;;;;;;12.35;6.55;;;3.20;99.90;;;;;;5027417;28;20193;-85
2023/02/22 05:22:18;;;;;;;7.45;6.25;;;3.20;99.90;;;;;;5027321;28;20205;-85
2023/02/22 05:25:04;;;;;;;10.18;6.22;;;3.20;99.90;;;;;;5019732;28;20218;-85
2023/02/22 05:27:51;;;;;;;10.27;6.35;;;3.30;99.90;;;;;;5027059;28;20197;-84
2023/02/22 05:30:39;;;;;;;11.10;7.28;;;3.30;99.90;;;;;;5032933;28;20205;-85
2023/02/22 05:33:24;;;;;;;7.50;6.50;;;3.20;99.90;;;;;;5032956;28;20806;-85
2023/02/22 05:36:10;;;;;;;11.07;6.55;;;3.10;99.90;;;;;;5031221;28;20217;-85
2023/02/22 05:38:57;;;;;;;17.00;7.88;;;3.00;99.90;;;;;;5024767;28;20697;-85
2023/02/22 05:41:43;;;;;;;11.48;6.43;;;3.00;99.90;;;;;;5028457;28;20198;-86
2023/02/22 05:44:28;;;;;;;11.00;7.75;;;2.90;99.90;;;;;;5027778;28;20241;-86
2023/02/22 05:47:14;;;;;;;13.77;7.70;;;2.90;99.90;;;;;;5027450;28;20699;-85
2023/02/22 05:50:01;;;;;;;9.40;7.68;;;3.10;99.90;;;;;;5030393;28;20237;-85
2023/02/22 05:52:47;;;;;;;16.77;8.13;;;3.10;99.90;;;;;;5034435;28;20225;-86
2023/02/22 05:55:34;;;;;;;12.82;7.30;;;3.10;99.90;;;;;;5028545;28;20226;-85
2023/02/22 05:58:20;;;;;;;14.45;7.22;;;3.20;99.90;;;;;;5034856;28;20202;-85
2023/02/22 06:01:06;;;;;;;9.20;7.13;;;3.30;99.90;;;;;;5031739;28;20205;-86
2023/02/22 06:03:52;;;;;;;9.02;7.15;;;3.30;99.90;;;;;;5037382;28;20585;-86
2023/02/22 06:06:38;;;;;;;8.82;6.75;;;3.30;99.90;;;;;;5038113;28;20209;-85
2023/02/22 06:09:23;;;;;;;9.32;6.63;;;3.40;99.90;;;;;;5034141;28;20214;-85
2023/02/22 06:12:11;;;;;;;8.70;7.35;;;3.40;99.90;;;;;;5033375;28;20202;-85
2023/02/22 06:14:56;;;;;;;9.60;5.82;;;3.50;99.90;;;;;;5036538;28;20599;-83
2023/02/22 06:17:42;;;;;;;13.20;7.10;;;3.50;99.90;;;;;;5034677;28;20201;-86
2023/02/22 06:20:29;;;;;;;8.80;7.18;;;3.40;99.90;;;;;;5030920;28;20286;-86
2023/02/22 06:23:15;;;;;;;10.20;7.55;;;3.20;99.90;;;;;;5033101;28;20226;-85
2023/02/22 06:26:01;;;;;;;13.32;7.07;;;3.20;99.90;;;;;;5034877;28;20272;-86
2023/02/22 06:28:48;;;;;;;10.07;7.95;;;3.10;99.90;;;;;;5029027;28;20237;-85
2023/02/22 06:31:34;;;;;;;10.05;7.00;;;3.00;99.90;;;;;;5034886;28;20982;-86
2023/02/22 06:34:21;;;;;;;11.10;8.05;;;2.90;99.90;;;;;;5035201;28;20226;-85
2023/02/22 06:37:07;;;;;;;11.68;8.85;;;2.90;99.90;;;;;;5036698;28;20260;-85
2023/02/22 06:39:53;;;;;;;10.52;8.05;;;3.00;99.90;;;;;;5031362;28;20754;-85
2023/02/22 06:42:39;;;;;;;16.80;9.82;;;3.00;99.90;;;;;;5034495;28;20258;-85
2023/02/22 06:45:26;;;;;;;11.98;7.90;;;3.00;99.90;;;;;;5041500;28;20253;-84
2023/02/22 06:48:11;;;;;;;10.65;7.72;;;3.20;99.90;;;;;;5042995;28;20241;-85
2023/02/22 06:50:57;;;;;;;11.07;7.00;;;3.20;99.90;;;;;;5033096;28;20206;-86
2023/02/22 06:53:43;;;;;;;9.68;6.93;;;3.30;99.90;;;;;;5033737;28;20221;-85
2023/02/22 06:56:29;;;;;;;11.13;8.07;;;3.30;99.90;;;;;;5035806;28;20279;-86
2023/02/22 06:59:15;;;;;;;9.75;7.57;;;3.30;99.90;;;;;;5029845;28;20213;-85
2023/02/22 07:02:02;;;;;;;13.10;6.85;;;3.40;99.90;;;;;;5039049;28;20516;-86
2023/02/22 07:04:48;;;;;;;14.80;6.97;;;3.50;99.90;;;;;;5038783;28;20213;-86
2023/02/22 07:07:34;;;;;;;15.90;7.72;;;3.50;99.90;;;;;;5040436;28;20262;-85
2023/02/22 07:10:22;;;;;;;14.10;8.02;;;3.50;99.90;;;;;;5037635;28;20233;-86
2023/02/22 07:13:08;;;;;;;15.55;9.10;;;3.50;99.90;;;;;;5033971;28;20269;-85
2023/02/22 07:15:54;;;;;;;33.63;20.08;;;3.60;99.90;;;;;;5034469;28;20206;-87
2023/02/22 07:18:41;;;;;;;41.13;23.95;;;3.70;99.90;;;;;;5038030;28;20882;-85
2023/02/22 07:21:27;;;;;;;37.92;23.33;;;3.70;99.90;;;;;;5037656;28;20206;-85
2023/02/22 07:24:13;;;;;;;23.13;13.45;;;3.80;99.90;;;;;;5029576;28;20221;-85
2023/02/22 07:27:00;;;;;;;29.95;16.13;;;3.90;99.90;;;;;;5027756;28;20202;-86
2023/02/22 07:29:46;;;;;;;26.77;14.00;;;4.00;99.90;;;;;;5023113;28;20320;-86
2023/02/22 07:32:32;;;;;;;29.48;17.08;;;4.10;99.90;;;;;;5033861;28;20193;-85
2023/02/22 07:35:22;;;;;;;42.13;23.67;;;4.20;99.90;;;;;;5031156;28;20217;-86
2023/02/22 07:38:08;;;;;;;33.38;19.52;;;4.30;99.90;;;;;;5023817;28;20209;-85
2023/02/22 07:40:56;;;;;;;26.77;15.85;;;4.30;99.90;;;;;;5023836;28;20241;-86
2023/02/22 07:43:42;;;;;;;24.83;14.93;;;4.30;99.90;;;;;;5026391;28;20221;-86
2023/02/22 07:46:28;;;;;;;33.45;18.63;;;4.40;99.90;;;;;;5024739;28;20193;-85
2023/02/22 07:49:14;;;;;;;37.75;20.58;;;4.40;99.90;;;;;;5023299;28;20218;-86
2023/02/22 07:52:01;;;;;;;29.35;18.75;;;4.60;99.90;;;;;;5027807;28;20237;-85
2023/02/22 07:54:47;;;;;;;28.50;18.02;;;4.60;99.90;;;;;;5027401;28;20221;-85
2023/02/22 07:57:33;;;;;;;38.22;19.83;;;4.60;99.90;;;;;;5029079;28;20237;-85
2023/02/22 08:00:23;;;;;;;27.75;16.80;;;4.70;99.90;;;;;;5029590;28;20209;-85
2023/02/22 08:03:11;;;;;;;33.13;16.48;;;4.80;99.90;;;;;;5030981;28;20292;-85
2023/02/22 08:05:59;;;;;;;37.70;20.77;;;4.90;99.90;;;;;;5030969;28;20693;-85
2023/02/22 08:08:46;;;;;;;26.48;15.38;;;4.90;99.90;;;;;;5025742;28;20264;-85
2023/02/22 08:11:32;;;;;;;21.45;14.32;;;5.00;99.90;;;;;;5025743;28;20576;-85
2023/02/22 08:14:18;;;;;;;24.83;13.52;;;5.00;99.90;;;;;;5030350;28;20648;-88
2023/02/22 08:17:04;;;;;;;27.00;15.73;;;5.20;99.90;;;;;;5021771;28;20206;-86
2023/02/22 08:19:49;;;;;;;26.50;15.10;;;5.30;99.90;;;;;;5022189;28;20284;-86
2023/02/22 08:22:35;;;;;;;24.33;14.82;;;5.40;99.90;;;;;;5030402;28;20209;-85
2023/02/22 08:25:25;;;;;;;23.13;12.87;;;5.50;99.90;;;;;;5031693;28;20229;-84
2023/02/22 08:28:13;;;;;;;18.73;14.20;;;5.60;99.90;;;;;;5021173;28;21049;-84
2023/02/22 08:30:59;;;;;;;27.33;13.02;;;5.70;99.90;;;;;;5022339;28;20461;-85
2023/02/22 08:33:48;;;;;;;17.52;12.45;;;5.80;99.90;;;;;;5028417;28;20227;-85
2023/02/22 08:36:34;;;;;;;16.95;11.68;;;5.90;99.90;;;;;;5028436;28;20333;-85
2023/02/22 08:39:20;;;;;;;21.30;13.23;;;5.90;99.90;;;;;;5030198;28;20210;-86
2023/02/22 08:42:08;;;;;;;19.70;13.13;;;5.90;99.90;;;;;;5033698;28;20282;-85
2023/02/22 08:44:53;;;;;;;16.13;11.65;;;6.00;99.90;;;;;;5033564;28;20512;-85
2023/02/22 08:47:39;;;;;;;12.95;9.98;;;6.20;99.90;;;;;;5023445;28;20218;-85
2023/02/22 08:50:27;;;;;;;15.80;10.20;;;6.30;99.90;;;;;;5034872;28;20213;-85
2023/02/22 08:53:14;;;;;;;15.77;10.60;;;6.40;99.90;;;;;;5028331;28;20229;-85
2023/02/22 08:55:59;;;;;;;13.70;10.68;;;6.50;99.90;;;;;;5036821;28;20435;-86
2023/02/22 08:58:47;;;;;;;16.87;11.23;;;6.60;99.90;;;;;;5030046;28;20245;-86
2023/02/22 09:01:48;;;;;;;18.23;11.60;;;6.80;99.90;;;;;;5093085;27;20538;-71
2023/02/22 09:04:33;;;;;;;23.73;11.63;;;7.00;99.90;;;;;;5084414;28;20416;-71
2023/02/22 09:07:19;;;;;;;30.90;13.37;;;7.20;99.90;;;;;;5086185;28;20472;-71
2023/02/22 09:10:05;;;;;;;27.00;14.00;;;7.40;99.90;;;;;;5080657;28;20488;-71
2023/02/22 09:12:51;;;;;;;27.60;15.07;;;7.50;99.90;;;;;;5082630;22;20481;-86
2023/02/22 09:15:38;;;;;;;22.63;14.67;;;7.70;99.90;;;;;;5029250;28;20464;-86
2023/02/22 09:18:27;;;;;;;23.10;14.00;;;7.90;99.90;;;;;;5014723;28;20815;-86
2023/02/22 09:21:13;;;;;;;26.07;14.00;;;8.10;99.90;;;;;;5022783;28;20893;-86
2023/02/22 09:24:04;;;;;;;19.33;12.80;;;8.30;99.90;;;;;;5020470;28;20467;-86
2023/02/22 09:26:53;;;;;;;27.33;13.03;;;8.40;99.90;;;;;;5019896;28;20438;-85
2023/02/22 09:29:39;;;;;;;24.50;14.30;;;8.50;99.90;;;;;;5069951;23;20770;-75
2023/02/22 09:32:26;;;;;;;19.97;13.60;;;8.70;99.90;;;;;;5056899;28;20425;-76
2023/02/22 09:35:13;;;;;;;22.37;14.10;;;8.90;99.90;;;;;;5036321;28;20967;-75
2023/02/22 09:38:00;;;;;;;21.40;12.80;;;8.90;99.90;;;;;;5027774;28;20430;-75
2023/02/22 09:40:49;;;;;;;33.37;13.07;;;9.00;99.90;;;;;;5031253;28;20466;-73
2023/02/22 09:43:41;;;;;;;22.13;14.17;;;9.10;99.90;;;;;;5033174;28;20618;-73
2023/02/22 09:46:33;;;;;;;27.37;14.20;;;9.40;99.90;;;;;;5029811;28;20423;-73
2023/02/22 09:49:23;;;;;;;23.77;12.97;;;9.60;99.90;;;;;;5038570;28;20486;-73
2023/02/22 09:52:18;;;;;;;24.20;14.57;;;9.80;99.90;;;;;;5036193;28;20433;-74
2023/02/22 09:55:10;;;;;;;15.60;11.97;;;10.10;99.90;;;;;;5039134;28;20959;-73
2023/02/22 09:57:57;;;;;;;25.87;12.40;;;10.40;99.90;;;;;;5028768;28;20445;-73
2023/02/22 10:00:46;;;;;;;20.10;12.43;;;10.60;99.90;;;;;;5039215;28;20507;-73
2023/02/22 10:03:38;;;;;;;21.60;13.13;;;10.90;99.90;;;;;;5040206;28;20419;-73
2023/02/22 10:06:25;;;;;;;19.40;11.57;;;11.10;99.90;;;;;;5022076;28;20630;-74
2023/02/22 10:09:12;;;;;;;22.80;11.97;;;11.20;99.90;;;;;;5025930;28;20775;-73
2023/02/22 10:11:59;;;;;;;13.47;10.07;;;11.40;99.90;;;;;;5031614;28;20426;-73
2023/02/22 10:15:27;;;;;;;21.47;11.90;;;11.40;99.90;;;;;;5029498;28;20404;-73
2023/02/22 10:18:38;;;;;;;15.47;11.63;;;11.40;99.90;;;;;;5011767;28;20503;-74
2023/02/22 10:21:41;;;;;;;18.27;12.70;;;11.40;99.90;;;;;;5022059;28;20565;-73
2023/02/22 10:24:44;;;;;;;16.80;11.47;;;11.40;99.90;;;;;;5019611;28;20560;-73
2023/02/22 10:27:33;;;;;;;15.50;11.20;;;11.40;99.90;;;;;;5011665;28;20792;-73
2023/02/22 10:30:22;;;;;;;18.50;11.90;;;11.40;99.90;;;;;;5019578;28;20862;-73
2023/02/22 10:33:13;;;;;;;18.00;11.40;;;11.50;99.90;;;;;;5023440;28;20454;-73
2023/02/22 10:36:00;;;;;;;16.57;11.53;;;11.60;99.90;;;;;;5024125;28;20410;-73
2023/02/22 10:38:51;;;;;;;20.00;11.17;;;11.60;99.90;;;;;;5018676;28;20798;-73
2023/02/22 10:41:44;;;;;;;14.50;11.50;;;11.60;99.90;;;;;;5027868;28;20489;-74
2023/02/22 10:44:30;;;;;;;18.37;11.57;;;11.80;99.90;;;;;;5023201;28;20941;-73
2023/02/22 10:47:18;;;;;;;17.20;13.10;;;11.80;99.90;;;;;;5016053;28;20968;-73
2023/02/22 10:50:03;;;;;;;18.43;11.43;;;12.00;98.80;;;;;;5012586;28;20787;-73
2023/02/22 10:52:54;;;;;;;17.43;10.27;;;12.10;97.90;;;;;;5010231;28;20814;-73
2023/02/22 10:56:07;;;;;;;15.23;10.97;;;12.40;96.60;;;;;;5019242;28;20436;-73
2023/02/22 10:58:58;;;;;;;12.37;9.80;;;12.50;92.60;;;;;;5026813;28;20404;-73
2023/02/22 11:01:44;;;;;;;16.90;9.97;;;12.60;90.00;;;;;;5024907;28;20451;-73
2023/02/22 11:04:45;;;;;;;16.40;11.00;;;12.60;89.70;;;;;;5026803;28;20458;-73
2023/02/22 11:07:33;;;;;;;13.63;10.07;;;12.70;89.00;;;;;;5008678;28;20814;-73
2023/02/22 11:10:31;;;;;;;14.87;9.70;;;12.90;87.10;;;;;;5021245;28;20405;-73
2023/02/22 11:13:18;;;;;;;14.70;9.10;;;13.10;79.00;;;;;;5023965;28;20908;-73
2023/02/22 11:16:19;;;;;;;15.63;9.43;;;13.20;78.40;;;;;;5016867;28;20451;-73
2023/02/22 11:19:19;;;;;;;13.60;10.23;;;13.40;77.70;;;;;;5016085;28;20493;-73
2023/02/22 11:22:13;;;;;;;15.70;10.10;;;13.60;74.80;;;;;;5030432;28;20478;-73
2023/02/22 11:25:02;;;;;;;16.20;10.00;;;13.80;74.30;;;;;;5022923;28;20443;-73
2023/02/22 11:27:48;;;;;;;23.13;10.40;;;13.80;70.10;;;;;;5026764;28;20413;-74
2023/02/22 11:30:35;;;;;;;14.40;9.67;;;14.00;66.60;;;;;;5021329;28;20397;-74
2023/02/22 11:33:25;;;;;;;16.80;11.17;;;13.90;67.60;;;;;;5014049;28;20452;-74
2023/02/22 11:36:15;;;;;;;17.60;11.60;;;13.80;68.60;;;;;;5017143;28;20415;-73
2023/02/22 11:39:04;;;;;;;18.50;11.93;;;13.90;69.00;;;;;;5020926;28;20482;-73
2023/02/22 11:41:50;;;;;;;18.23;10.77;;;14.10;68.00;;;;;;5016876;28;20455;-73
2023/02/22 11:44:36;;;;;;;19.73;11.40;;;14.20;67.90;;;;;;5020875;28;20458;-73
2023/02/22 11:47:22;;;;;;;15.93;11.03;;;14.30;67.10;;;;;;5015014;28;20474;-73
2023/02/22 11:50:21;;;;;;;16.00;10.60;;;14.30;63.60;;;;;;5025996;28;20954;-73
2023/02/22 11:53:24;;;;;;;15.20;9.73;;;14.50;65.30;;;;;;5006321;28;20519;-73
2023/02/22 11:56:17;;;;;;;15.73;11.70;;;14.50;63.50;;;;;;5001005;28;20427;-73
2023/02/22 11:59:11;;;;;;;17.27;11.10;;;14.60;63.00;;;;;;5019949;28;20894;-75
2023/02/22 12:02:03;;;;;;;13.70;10.10;;;14.40;60.90;;;;;;5007143;28;20460;-73
2023/02/22 12:05:10;;;;;;;11.70;9.03;;;14.50;61.80;;;;;;5018525;28;20776;-74
2023/02/22 12:08:07;;;;;;;17.27;10.97;;;14.60;62.80;;;;;;5018727;28;20417;-73
2023/02/22 12:11:02;;;;;;;14.13;10.37;;;14.70;63.00;;;;;;5024997;28;20546;-73
2023/02/22 12:14:01;;;;;;;19.47;12.70;;;14.80;63.00;;;;;;5016764;28;20519;-73
2023/02/22 12:17:18;;;;;;;21.40;12.40;;;14.90;62.40;;;;;;5016234;28;20506;-73
2023/02/22 12:20:13;;;;;;;21.03;12.77;;;14.80;62.80;;;;;;5013776;28;20447;-73
2023/02/22 12:23:06;;;;;;;16.07;11.77;;;15.00;63.60;;;;;;5006712;28;20442;-73
2023/02/22 12:26:00;;;;;;;20.00;12.83;;;15.00;63.00;;;;;;5013444;28;20455;-73
2023/02/22 12:28:58;;;;;;;19.03;13.20;;;15.20;62.70;;;;;;5021324;28;20456;-73
2023/02/22 12:31:47;;;;;;;18.13;12.20;;;15.30;62.20;;;;;;5001386;28;20931;-73
2023/02/22 12:34:39;;;;;;;17.73;13.20;;;15.40;61.50;;;;;;5013656;28;20574;-73
2023/02/22 12:37:29;;;;;;;18.63;11.40;;;15.50;60.70;;;;;;5012264;28;20502;-73
2023/02/22 12:40:23;;;;;;;15.97;11.63;;;15.60;62.20;;;;;;5006360;28;20455;-73
2023/02/22 12:43:16;;;;;;;18.90;12.40;;;15.70;62.60;;;;;;5007510;28;20472;-73
2023/02/22 12:46:06;;;;;;;17.33;12.00;;;15.70;59.40;;;;;;5006569;28;21016;-73
2023/02/22 12:48:57;;;;;;;19.43;11.90;;;15.80;59.70;;;;;;5011621;28;20447;-73
2023/02/22 12:51:51;;;;;;;16.60;12.57;;;15.80;59.30;;;;;;5000349;28;20419;-73
2023/02/22 12:54:48;;;;;;;15.43;12.20;;;15.90;59.80;;;;;;5007609;28;20903;-73
2023/02/22 12:57:43;;;;;;;15.13;11.40;;;16.10;59.50;;;;;;5008450;28;20455;-73
2023/02/22 13:00:42;;;;;;;15.97;11.07;;;16.10;54.30;;;;;;4998871;28;20460;-73
2023/02/22 13:03:34;;;;;;;17.10;11.57;;;16.10;53.60;;;;;;4998927;28;20544;-74
2023/02/22 13:06:38;;;;;;;15.80;11.60;;;16.20;54.80;;;;;;5012949;28;20456;-73
2023/02/22 13:09:52;;;;;;;14.57;11.17;;;16.30;53.70;;;;;;5006074;28;20431;-73
2023/02/22 13:12:48;;;;;;;16.40;10.53;;;16.50;55.10;;;;;;5000555;28;20705;-73
2023/02/22 13:15:43;;;;;;;13.70;10.60;;;16.50;51.10;;;;;;5017606;28;20431;-73
2023/02/22 13:18:35;;;;;;;21.83;11.70;;;16.60;51.30;;;;;;5017886;28;20401;-73
2023/02/22 13:21:27;;;;;;;16.37;11.30;;;16.70;49.80;;;;;;5004909;28;20655;-73
2023/02/22 13:24:21;;;;;;;15.23;10.50;;;16.70;50.30;;;;;;5015096;28;20845;-73
2023/02/22 13:27:13;;;;;;;17.40;10.10;;;16.90;52.00;;;;;;5017616;28;20399;-73
2023/02/22 13:30:01;;;;;;;19.20;10.50;;;17.00;50.20;;;;;;5012323;28;20800;-73
2023/02/22 13:33:07;;;;;;;15.30;10.60;;;17.10;51.70;;;;;;5014336;28;20446;-73
2023/02/22 13:36:09;;;;;;;13.90;10.43;;;17.40;50.50;;;;;;4997234;28;20950;-73
2023/02/22 13:39:35;;;;;;;18.53;11.60;;;17.70;47.90;;;;;;5005177;28;20511;-73
2023/02/22 13:42:42;;;;;;;14.57;10.83;;;17.80;46.30;;;;;;4997806;28;20450;-73
2023/02/22 13:45:52;;;;;;;17.13;10.57;;;17.80;46.00;;;;;;4972645;28;20810;-73
2023/02/22 13:49:09;;;;;;;16.60;11.70;;;17.90;44.60;;;;;;5001000;28;20942;-73
2023/02/22 13:51:58;;;;;;;13.93;10.70;;;18.10;44.50;;;;;;5001131;28;20533;-73
2023/02/22 13:54:46;;;;;;;12.60;11.00;;;17.90;42.90;;;;;;4997550;28;20932;-73
2023/02/22 13:57:39;;;;;;;17.40;11.63;;;17.80;42.50;;;;;;5004435;28;20423;-73
2023/02/22 14:00:43;;;;;;;14.33;10.00;;;17.70;44.10;;;;;;5005447;28;20508;-73
2023/02/22 14:03:39;;;;;;;21.90;11.70;;;17.70;46.40;;;;;;5008306;28;20475;-73
2023/02/22 14:06:46;;;;;;;13.37;9.40;;;17.70;44.70;;;;;;5003750;28;20839;-73
2023/02/22 14:09:47;;;;;;;14.23;9.77;;;17.60;45.40;;;;;;5005560;28;20510;-73
2023/02/22 14:12:49;;;;;;;13.57;10.03;;;17.70;46.00;;;;;;5005215;28;20968;-73
2023/02/22 14:15:35;;;;;;;16.00;10.97;;;17.70;46.40;;;;;;5012655;28;20539;-73
2023/02/22 14:18:22;;;;;;;16.87;10.30;;;17.50;45.30;;;;;;5004414;28;20456;-73
2023/02/22 14:21:10;;;;;;;19.83;11.90;;;17.30;46.40;;;;;;5002500;28;20528;-74
2023/02/22 14:24:05;;;;;;;14.53;11.60;;;17.10;46.10;;;;;;4997825;28;20473;-73
2023/02/22 14:26:57;;;;;;;20.17;13.90;;;17.00;47.50;;;;;;5003971;28;20448;-74
2023/02/22 14:29:52;;;;;;;16.07;12.03;;;17.10;47.20;;;;;;5001993;28;20900;-73
2023/02/22 14:32:38;;;;;;;17.57;11.67;;;16.90;48.10;;;;;;5008392;28;20447;-73
2023/02/22 14:35:31;;;;;;;17.97;11.77;;;16.90;48.20;;;;;;5007688;28;20890;-73
2023/02/22 14:38:19;;;;;;;20.30;11.60;;;17.00;49.50;;;;;;5022443;28;20452;-74
2023/02/22 14:41:07;;;;;;;15.17;11.27;;;17.00;49.60;;;;;;5033436;28;20843;-73